createdAt,value
2019-03-28T00:02:22.939Z,9.10
2019-03-28T00:04:53.353Z,9.10
2019-03-28T00:07:24.345Z,9.20
2019-03-28T00:09:55.634Z,9.20
2019-03-28T00:12:26.272Z,9.20
2019-03-28T00:14:56.826Z,9.20
2019-03-28T00:17:27.052Z,9.20
2019-03-28T00:19:57.311Z,9.20
2019-03-28T00:22:36.018Z,9.10
2019-03-28T00:25:08.940Z,9.10
2019-03-28T00:27:40.099Z,9.10
2019-03-28T00:30:10.559Z,9.10
2019-03-28T00:32:40.792Z,9.10
2019-03-28T00:35:11.078Z,9.10
2019-03-28T00:37:42.021Z,9.10
2019-03-28T00:40:12.466Z,9.10
2019-03-28T00:42:43.115Z,9.00
2019-03-28T00:45:13.511Z,9.00
2019-03-28T00:47:43.673Z,9.00
2019-03-28T00:50:14.924Z,9.00
2019-03-28T00:52:45.206Z,9.00
2019-03-28T00:55:16.355Z,9.00
2019-03-28T00:57:46.593Z,9.00
2019-03-28T01:00:18.283Z,9.00
2019-03-28T01:02:48.452Z,9.00
2019-03-28T01:05:18.543Z,9.00
2019-03-28T01:07:48.840Z,9.00
2019-03-28T01:10:18.830Z,9.00
2019-03-28T01:12:49.191Z,9.00
2019-03-28T01:15:19.230Z,9.00
2019-03-28T01:17:49.936Z,9.00
2019-03-28T01:20:19.942Z,9.00
2019-03-28T01:22:50.097Z,9.00
2019-03-28T01:25:20.954Z,9.00
2019-03-28T01:27:50.984Z,9.00
2019-03-28T01:30:22.565Z,8.90
2019-03-28T01:32:53.233Z,8.90
2019-03-28T01:35:23.285Z,9.00
2019-03-28T01:37:54.768Z,8.90
2019-03-28T01:40:26.162Z,9.00
2019-03-28T01:42:56.758Z,8.90
2019-03-28T01:45:27.200Z,9.00
2019-03-28T01:47:57.720Z,8.90
2019-03-28T01:50:27.710Z,8.90
2019-03-28T01:52:57.912Z,9.00
2019-03-28T01:55:28.143Z,9.00
2019-03-28T01:57:58.675Z,9.00
2019-03-28T02:00:28.676Z,9.00
2019-03-28T02:02:58.670Z,9.00
2019-03-28T02:05:31.459Z,9.00
2019-03-28T02:08:02.856Z,9.00
2019-03-28T02:10:34.360Z,9.00
2019-03-28T02:13:04.318Z,9.00
2019-03-28T02:15:34.954Z,8.90
2019-03-28T02:18:04.976Z,8.90
2019-03-28T02:20:36.180Z,8.90
2019-03-28T02:23:06.843Z,8.90
2019-03-28T02:25:36.870Z,8.90
2019-03-28T02:28:09.460Z,8.90
2019-03-28T02:30:40.247Z,8.90
2019-03-28T02:33:11.078Z,8.90
2019-03-28T02:35:41.324Z,8.90
2019-03-28T02:38:11.914Z,8.90
2019-03-28T02:40:42.708Z,8.90
2019-03-28T02:43:13.149Z,8.90
2019-03-28T02:45:44.208Z,8.90
2019-03-28T02:48:14.783Z,8.90
2019-03-28T02:50:44.855Z,8.80
2019-03-28T02:53:15.147Z,8.90
2019-03-28T02:55:45.399Z,8.90
2019-03-28T02:58:16.000Z,8.90
2019-03-28T03:00:46.383Z,8.80
2019-03-28T03:03:18.158Z,8.90
2019-03-28T03:05:48.547Z,8.80
2019-03-28T03:08:18.578Z,8.80
2019-03-28T03:10:48.538Z,8.80
2019-03-28T03:13:19.865Z,8.80
2019-03-28T03:15:50.373Z,8.80
2019-03-28T03:18:21.594Z,8.80
2019-03-28T03:20:52.756Z,8.80
2019-03-28T03:23:23.043Z,8.80
2019-03-28T03:25:52.960Z,8.80
2019-03-28T03:28:23.026Z,8.80
2019-03-28T03:30:53.282Z,8.80
2019-03-28T03:33:23.314Z,8.70
2019-03-28T03:35:53.343Z,8.70
2019-03-28T03:38:23.853Z,8.70
2019-03-28T03:40:54.730Z,8.70
2019-03-28T03:43:25.595Z,8.70
2019-03-28T03:45:56.199Z,8.70
2019-03-28T03:48:26.319Z,8.70
2019-03-28T03:50:56.579Z,8.70
2019-03-28T03:53:27.366Z,8.70
2019-03-28T03:56:01.194Z,8.60
2019-03-28T03:58:31.527Z,8.60
2019-03-28T04:01:07.558Z,8.60
2019-03-28T04:03:37.441Z,8.60
2019-03-28T04:06:07.896Z,8.60
2019-03-28T04:08:38.158Z,8.60
2019-03-28T04:11:08.472Z,8.60
2019-03-28T04:13:43.473Z,8.60
2019-03-28T04:16:15.745Z,8.60
2019-03-28T04:18:46.252Z,8.60
2019-03-28T04:21:17.066Z,8.60
2019-03-28T04:23:47.394Z,8.60
2019-03-28T04:26:24.198Z,8.50
2019-03-28T04:28:54.164Z,8.60
2019-03-28T04:31:24.724Z,8.60
2019-03-28T04:33:54.731Z,8.60
2019-03-28T04:36:26.727Z,8.60
2019-03-28T04:38:57.080Z,8.60
2019-03-28T04:41:27.534Z,8.60
2019-03-28T04:43:57.633Z,8.60
2019-03-28T04:46:28.015Z,8.60
2019-03-28T04:49:01.116Z,8.60
2019-03-28T04:51:31.398Z,8.60
2019-03-28T04:54:02.266Z,8.60
2019-03-28T04:56:32.469Z,8.60
2019-03-28T04:59:02.725Z,8.60
2019-03-28T05:01:37.104Z,8.60
2019-03-28T05:04:07.626Z,8.60
2019-03-28T05:06:38.245Z,8.60
2019-03-28T05:09:09.192Z,8.60
2019-03-28T05:11:39.406Z,8.60
2019-03-28T05:14:09.988Z,8.60
2019-03-28T05:16:40.303Z,8.60
2019-03-28T05:19:11.426Z,8.60
2019-03-28T05:21:42.049Z,8.60
2019-03-28T05:24:12.538Z,8.60
2019-03-28T05:26:42.678Z,8.60
2019-03-28T05:29:13.270Z,8.60
2019-03-28T05:31:43.230Z,8.60
2019-03-28T05:34:14.825Z,8.60
2019-03-28T05:36:45.277Z,8.60
2019-03-28T05:39:16.154Z,8.60
2019-03-28T05:41:46.336Z,8.60
2019-03-28T05:44:16.258Z,8.70
2019-03-28T05:46:46.501Z,8.60
2019-03-28T05:49:16.701Z,8.70
2019-03-28T05:51:47.580Z,8.70
2019-03-28T05:54:17.631Z,8.70
2019-03-28T05:56:47.775Z,8.70
2019-03-28T05:59:17.938Z,8.70
2019-03-28T06:01:48.805Z,8.70
2019-03-28T06:04:19.012Z,8.70
2019-03-28T06:06:49.353Z,8.70
2019-03-28T06:09:19.602Z,8.70
2019-03-28T06:11:52.796Z,8.70
2019-03-28T06:14:22.301Z,8.70
2019-03-28T06:16:52.521Z,8.70
2019-03-28T06:19:23.033Z,8.70
2019-03-28T06:21:53.528Z,8.70
2019-03-28T06:24:23.908Z,8.70
2019-03-28T06:26:54.178Z,8.70
2019-03-28T06:29:25.325Z,8.80
2019-03-28T06:31:56.723Z,8.80
2019-03-28T06:34:27.586Z,8.80
2019-03-28T06:36:57.667Z,8.80
2019-03-28T06:39:27.856Z,8.90
2019-03-28T06:41:59.610Z,8.90
2019-03-28T06:44:29.670Z,9.00
2019-03-28T06:47:00.709Z,9.00
2019-03-28T06:49:30.789Z,9.00
2019-03-28T06:52:00.950Z,9.10
2019-03-28T06:54:31.100Z,9.10
2019-03-28T06:57:01.484Z,9.10
2019-03-28T06:59:37.744Z,9.20
2019-03-28T07:02:05.841Z,9.20
2019-03-28T07:04:36.414Z,9.30
2019-03-28T07:07:06.694Z,9.30
2019-03-28T07:09:36.894Z,9.30
2019-03-28T07:12:07.199Z,9.40
2019-03-28T07:14:38.132Z,9.40
2019-03-28T07:17:08.204Z,9.40
2019-03-28T07:19:38.490Z,9.40
2019-03-28T07:22:09.132Z,9.50
2019-03-28T07:24:39.692Z,9.50
2019-03-28T07:27:10.440Z,9.60
2019-03-28T07:29:50.779Z,9.60
2019-03-28T07:32:12.859Z,9.60
2019-03-28T07:34:42.794Z,9.70
2019-03-28T07:37:12.807Z,9.70
2019-03-28T07:39:43.764Z,9.70
2019-03-28T07:42:14.102Z,9.70
2019-03-28T07:44:44.160Z,9.70
2019-03-28T07:47:14.864Z,9.70
2019-03-28T07:49:45.630Z,9.80
2019-03-28T07:52:20.116Z,9.80
2019-03-28T07:54:50.209Z,9.90
2019-03-28T07:57:20.499Z,9.80
2019-03-28T08:00:03.524Z,9.90
2019-03-28T08:02:25.845Z,9.90
2019-03-28T08:04:56.130Z,9.90
2019-03-28T08:07:26.086Z,10.00
2019-03-28T08:09:56.238Z,10.10
2019-03-28T08:12:26.561Z,10.10
2019-03-28T08:14:56.915Z,10.20
2019-03-28T08:17:26.797Z,10.20
2019-03-28T08:19:56.717Z,10.30
2019-03-28T08:22:29.618Z,10.40
2019-03-28T08:25:01.932Z,10.40
2019-03-28T08:27:32.743Z,10.40
2019-03-28T08:30:03.097Z,10.40
2019-03-28T08:32:35.563Z,10.40
2019-03-28T08:35:05.748Z,10.50
2019-03-28T08:37:36.090Z,10.50
2019-03-28T08:40:07.652Z,10.60
2019-03-28T08:42:38.041Z,10.70
2019-03-28T08:45:08.632Z,10.60
2019-03-28T08:47:39.967Z,10.80
2019-03-28T08:50:10.213Z,10.70
2019-03-28T08:52:42.549Z,10.70
2019-03-28T08:55:12.591Z,10.80
2019-03-28T08:57:42.999Z,10.80
2019-03-28T09:00:16.456Z,10.80
2019-03-28T09:02:45.694Z,10.80
2019-03-28T09:05:16.036Z,10.70
2019-03-28T09:07:46.330Z,10.60
2019-03-28T09:10:16.920Z,10.70
2019-03-28T09:12:47.491Z,10.50
2019-03-28T09:15:17.686Z,10.50
2019-03-28T09:17:47.767Z,10.50
2019-03-28T09:20:18.097Z,10.50
2019-03-28T09:22:49.159Z,10.60
2019-03-28T09:25:19.440Z,10.70
2019-03-28T09:27:51.688Z,10.60
2019-03-28T09:30:47.636Z,10.60
2019-03-28T09:33:06.578Z,10.60
2019-03-28T09:35:36.941Z,10.60
2019-03-28T09:38:07.196Z,10.60
2019-03-28T09:40:37.631Z,10.60
2019-03-28T09:43:08.272Z,10.50
2019-03-28T09:45:39.359Z,10.40
2019-03-28T09:48:11.683Z,10.40
2019-03-28T09:50:42.109Z,10.40
2019-03-28T09:53:12.578Z,10.40
2019-03-28T09:55:42.902Z,10.40
2019-03-28T09:58:13.285Z,10.30
2019-03-28T10:00:43.723Z,10.10
2019-03-28T10:03:14.816Z,10.30
2019-03-28T10:05:46.196Z,10.20
2019-03-28T10:08:16.436Z,10.40
2019-03-28T10:10:48.735Z,10.50
2019-03-28T10:13:18.639Z,10.60
2019-03-28T10:18:33.582Z,10.50
2019-03-28T10:21:03.884Z,10.50
2019-03-28T10:23:39.670Z,10.60
2019-03-28T10:26:08.877Z,10.50
2019-03-28T10:28:39.082Z,10.50
2019-03-28T10:31:16.282Z,10.50
2019-03-28T10:33:42.303Z,10.50
2019-03-28T10:36:12.585Z,10.60
2019-03-28T10:38:44.426Z,10.70
2019-03-28T10:41:15.214Z,10.60
2019-03-28T10:43:46.651Z,10.70
2019-03-28T10:46:17.041Z,10.70
2019-03-28T10:48:47.071Z,10.70
2019-03-28T10:51:18.647Z,10.70
2019-03-28T10:53:48.664Z,10.70
2019-03-28T10:56:22.426Z,10.70
2019-03-28T10:58:50.993Z,10.70
2019-03-28T11:01:35.986Z,10.70
2019-03-28T11:03:53.043Z,10.60
2019-03-28T11:06:25.192Z,10.60
2019-03-28T11:08:58.257Z,10.60
2019-03-28T11:11:28.887Z,10.80
2019-03-28T11:13:59.619Z,10.80
2019-03-28T11:16:30.031Z,10.70
2019-03-28T11:19:00.079Z,10.70
2019-03-28T11:21:34.103Z,10.50
2019-03-28T11:24:02.934Z,10.60
2019-03-28T11:26:33.037Z,10.70
2019-03-28T11:29:03.434Z,10.80
2019-03-28T11:31:46.087Z,10.90
2019-03-28T11:34:11.632Z,10.80
2019-03-28T11:36:41.609Z,10.90
2019-03-28T11:39:17.437Z,10.90
2019-03-28T11:41:48.329Z,11.00
2019-03-28T11:44:19.104Z,10.90
2019-03-28T11:46:49.412Z,10.90
2019-03-28T11:49:20.183Z,10.90
2019-03-28T11:51:53.310Z,10.80
2019-03-28T11:54:24.492Z,10.90
2019-03-28T11:56:56.878Z,10.90
2019-03-28T11:59:29.297Z,10.90
2019-03-28T12:02:13.615Z,10.90
2019-03-28T12:04:38.759Z,10.90
2019-03-28T12:07:09.714Z,11.00
2019-03-28T12:09:40.669Z,10.90
2019-03-28T12:12:12.547Z,11.00
2019-03-28T12:14:50.838Z,11.00
2019-03-28T12:17:22.593Z,11.10
2019-03-28T12:19:53.354Z,11.10
2019-03-28T12:22:39.424Z,11.10
2019-03-28T12:25:11.488Z,11.10
2019-03-28T12:27:52.867Z,11.20
2019-03-28T12:30:24.822Z,11.20
2019-03-28T12:32:54.949Z,11.20
2019-03-28T12:35:46.954Z,11.20
2019-03-28T12:38:17.355Z,11.20
2019-03-28T12:40:47.474Z,11.30
2019-03-28T12:43:17.557Z,11.30
2019-03-28T12:45:48.289Z,11.30
2019-03-28T12:48:18.306Z,11.40
2019-03-28T12:50:58.236Z,11.50
2019-03-28T12:53:20.216Z,11.40
2019-03-28T12:55:50.808Z,11.50
2019-03-28T12:58:21.130Z,11.50
2019-03-28T13:00:51.406Z,11.50
2019-03-28T13:03:21.708Z,11.50
2019-03-28T13:05:52.085Z,11.50
2019-03-28T13:08:21.933Z,11.60
2019-03-28T13:10:52.023Z,11.60
2019-03-28T13:13:23.878Z,11.60
2019-03-28T13:15:53.953Z,11.60
2019-03-28T13:18:25.663Z,11.70
2019-03-28T13:20:56.074Z,11.70
2019-03-28T13:23:26.167Z,11.70
2019-03-28T13:25:56.877Z,11.70
2019-03-28T13:28:28.527Z,11.70
2019-03-28T13:30:59.535Z,11.80
2019-03-28T13:33:29.598Z,11.70
2019-03-28T13:35:59.488Z,11.80
2019-03-28T13:38:30.006Z,11.80
2019-03-28T13:40:59.943Z,11.80
2019-03-28T13:43:30.605Z,11.80
2019-03-28T13:46:01.005Z,11.90
2019-03-28T13:48:31.803Z,11.90
2019-03-28T13:51:03.506Z,11.90
2019-03-28T13:53:39.702Z,11.90
2019-03-28T13:56:05.863Z,11.50
2019-03-28T13:58:39.463Z,11.90
2019-03-28T14:01:09.797Z,11.90
2019-03-28T14:03:39.767Z,11.80
2019-03-28T14:06:09.753Z,11.70
2019-03-28T14:08:40.529Z,11.80
2019-03-28T14:11:10.625Z,11.70
2019-03-28T14:13:41.845Z,11.70
2019-03-28T14:16:12.481Z,11.80
2019-03-28T14:18:43.326Z,11.80
2019-03-28T14:21:13.334Z,11.70
2019-03-28T14:23:44.622Z,11.80
2019-03-28T14:26:14.817Z,11.80
2019-03-28T14:28:44.830Z,11.70
2019-03-28T14:31:15.741Z,11.60
2019-03-28T14:33:48.379Z,11.50
2019-03-28T14:36:18.796Z,11.50
2019-03-28T14:38:49.571Z,11.40
2019-03-28T14:43:59.790Z,11.50
2019-03-28T14:46:37.194Z,11.50
2019-03-28T14:49:07.283Z,11.50
2019-03-28T14:51:37.795Z,11.50
2019-03-28T14:54:07.946Z,11.60
2019-03-28T14:56:39.271Z,11.60
2019-03-28T14:59:14.261Z,11.60
2019-03-28T15:01:46.888Z,11.60
2019-03-28T15:04:16.966Z,11.60
2019-03-28T15:06:46.999Z,11.60
2019-03-28T15:09:23.986Z,11.60
2019-03-28T15:11:49.982Z,11.60
2019-03-28T15:14:20.890Z,11.50
2019-03-28T15:16:51.781Z,11.50
2019-03-28T15:19:21.773Z,11.50
2019-03-28T15:21:51.937Z,11.50
2019-03-28T15:24:21.921Z,11.50
2019-03-28T15:26:52.289Z,11.60
2019-03-28T15:29:22.401Z,11.60
2019-03-28T15:31:54.319Z,11.50
2019-03-28T15:34:24.337Z,11.50
2019-03-28T15:36:55.592Z,11.60
2019-03-28T15:39:27.780Z,11.60
2019-03-28T15:41:58.710Z,11.50
2019-03-28T15:44:50.561Z,11.60
2019-03-28T15:47:26.170Z,11.60
2019-03-28T15:49:56.461Z,11.50
2019-03-28T15:52:27.732Z,11.50
2019-03-28T15:54:57.932Z,11.50
2019-03-28T15:57:30.468Z,11.50
2019-03-28T16:00:01.367Z,11.50
2019-03-28T16:02:31.834Z,11.60
2019-03-28T16:05:02.184Z,11.60
2019-03-28T16:07:33.392Z,11.50
2019-03-28T16:10:03.536Z,11.50
2019-03-28T16:12:36.799Z,11.50
2019-03-28T16:15:07.248Z,11.40
2019-03-28T16:17:37.834Z,11.40
2019-03-28T16:20:09.534Z,11.40
2019-03-28T16:22:40.054Z,11.40
2019-03-28T16:25:10.964Z,11.40
2019-03-28T16:27:41.779Z,11.30
2019-03-28T16:30:13.173Z,11.40
2019-03-28T16:32:44.090Z,11.40
2019-03-28T16:35:17.272Z,11.30
2019-03-28T16:37:51.004Z,11.30
2019-03-28T16:40:23.599Z,11.20
2019-03-28T16:42:57.773Z,11.20
2019-03-28T16:45:27.967Z,11.20
2019-03-28T16:47:58.251Z,11.20
2019-03-28T16:50:28.635Z,11.10
2019-03-28T16:52:59.222Z,11.10
2019-03-28T16:55:29.520Z,11.10
2019-03-28T16:57:59.438Z,11.10
2019-03-28T17:00:39.694Z,11.10
2019-03-28T17:03:09.730Z,11.00
2019-03-28T17:05:43.273Z,11.00
2019-03-28T17:08:14.518Z,11.00
2019-03-28T17:10:46.707Z,11.00
2019-03-28T17:13:26.931Z,11.00
2019-03-28T17:15:56.865Z,10.90
2019-03-28T17:18:26.795Z,10.90
2019-03-28T17:20:56.917Z,10.80
2019-03-28T17:23:30.295Z,10.80
2019-03-28T17:26:00.675Z,10.80
2019-03-28T17:28:32.999Z,10.80
2019-03-28T17:31:04.921Z,10.80
2019-03-28T17:33:35.111Z,10.80
2019-03-28T17:36:05.819Z,10.80
2019-03-28T17:38:36.067Z,10.70
2019-03-28T17:41:07.082Z,10.70
2019-03-28T17:43:37.236Z,10.70
2019-03-28T17:46:07.843Z,10.60
2019-03-28T17:48:40.555Z,10.60
2019-03-28T17:51:10.520Z,10.60
2019-03-28T17:53:40.618Z,10.50
2019-03-28T17:56:10.558Z,10.50
2019-03-28T17:58:43.062Z,10.50
2019-03-28T18:01:13.098Z,10.50
2019-03-28T18:03:43.357Z,10.50
2019-03-28T18:06:13.366Z,10.40
2019-03-28T18:08:46.087Z,10.40
2019-03-28T18:11:16.928Z,10.40
2019-03-28T18:13:47.610Z,10.40
2019-03-28T18:16:19.510Z,10.40
2019-03-28T18:18:49.453Z,10.30
2019-03-28T18:21:19.497Z,10.30
2019-03-28T18:23:49.797Z,10.30
2019-03-28T18:26:19.847Z,10.30
2019-03-28T18:28:49.711Z,10.30
2019-03-28T18:31:19.909Z,10.30
2019-03-28T18:33:50.181Z,10.30
2019-03-28T18:36:20.093Z,10.30
2019-03-28T18:38:52.526Z,10.30
2019-03-28T18:41:21.912Z,10.30
2019-03-28T18:43:51.844Z,10.30
2019-03-28T18:46:21.729Z,10.20
2019-03-28T18:48:52.691Z,10.20
2019-03-28T18:51:22.587Z,10.20
2019-03-28T18:53:52.461Z,10.20
2019-03-28T18:56:22.305Z,10.20
2019-03-28T18:58:52.405Z,10.20
2019-03-28T19:01:22.272Z,10.20
2019-03-28T19:03:52.333Z,10.20
2019-03-28T19:06:22.205Z,10.20
2019-03-28T19:08:53.155Z,10.10
2019-03-28T19:11:24.071Z,10.10
2019-03-28T19:13:54.057Z,10.10
2019-03-28T19:16:24.291Z,10.10
2019-03-28T19:18:54.290Z,10.10
2019-03-28T19:21:24.841Z,10.10
2019-03-28T19:23:55.037Z,10.00
2019-03-28T19:26:24.935Z,10.00
2019-03-28T19:28:56.220Z,10.00
2019-03-28T19:31:29.187Z,10.00
2019-03-28T19:33:59.027Z,10.00
2019-03-28T19:36:29.761Z,10.00
2019-03-28T19:38:59.821Z,9.90
2019-03-28T19:41:29.774Z,9.90
2019-03-28T19:44:00.044Z,9.90
2019-03-28T19:46:30.063Z,9.90
2019-03-28T19:49:00.412Z,9.90
2019-03-28T19:51:30.387Z,9.90
2019-03-28T19:54:00.515Z,9.90
2019-03-28T19:56:30.389Z,9.90
2019-03-28T19:59:00.313Z,9.80
2019-03-28T20:01:33.607Z,9.80
2019-03-28T20:04:03.670Z,9.80
2019-03-28T20:06:34.468Z,9.80
2019-03-28T20:09:15.719Z,9.80
2019-03-28T20:11:37.053Z,9.80
2019-03-28T20:14:07.083Z,9.80
2019-03-28T20:16:37.485Z,9.80
2019-03-28T20:19:10.275Z,9.80
2019-03-28T20:21:44.803Z,9.70
2019-03-28T20:24:15.019Z,9.70
2019-03-28T20:26:45.172Z,9.70
2019-03-28T20:29:15.692Z,9.70
2019-03-28T20:31:45.998Z,9.60
2019-03-28T20:34:15.875Z,9.60
2019-03-28T20:36:46.034Z,9.50
2019-03-28T20:39:16.344Z,9.50
2019-03-28T20:41:46.319Z,9.50
2019-03-28T20:44:16.171Z,9.40
2019-03-28T20:46:46.025Z,9.40
2019-03-28T20:49:16.031Z,9.40
2019-03-28T20:51:45.926Z,9.30
2019-03-28T20:54:16.541Z,9.30
2019-03-28T20:56:46.629Z,9.30
2019-03-28T20:59:16.431Z,9.20
2019-03-28T21:01:46.295Z,9.20
2019-03-28T21:04:16.187Z,9.20
2019-03-28T21:06:46.848Z,9.10
2019-03-28T21:09:16.873Z,9.10
2019-03-28T21:11:48.963Z,9.00
2019-03-28T21:14:18.548Z,9.00
2019-03-28T21:16:48.669Z,9.00
2019-03-28T21:19:19.043Z,8.90
2019-03-28T21:21:49.821Z,8.90
2019-03-28T21:24:19.846Z,8.90
2019-03-28T21:26:51.064Z,8.80
2019-03-28T21:29:28.527Z,8.80
2019-03-28T21:32:02.341Z,8.70
2019-03-28T21:34:32.307Z,8.70
2019-03-28T21:37:02.335Z,8.70
2019-03-28T21:39:32.639Z,8.60
2019-03-28T21:42:02.570Z,8.60
2019-03-28T21:44:32.944Z,8.60
2019-03-28T21:47:05.622Z,8.60
2019-03-28T21:49:35.839Z,8.50
2019-03-28T21:52:07.523Z,8.50
2019-03-28T21:54:37.355Z,8.50
2019-03-28T21:57:07.347Z,8.40
2019-03-28T21:59:37.281Z,8.40
2019-03-28T22:02:08.512Z,8.40
2019-03-28T22:04:39.133Z,8.40
2019-03-28T22:07:11.851Z,8.30
2019-03-28T22:09:41.719Z,8.30
2019-03-28T22:12:19.408Z,8.30
2019-03-28T22:14:49.720Z,8.20
2019-03-28T22:17:19.846Z,8.20
2019-03-28T22:19:49.747Z,8.20
2019-03-28T22:22:19.750Z,8.10
2019-03-28T22:24:49.825Z,8.10
2019-03-28T22:27:19.770Z,8.10
2019-03-28T22:29:49.755Z,8.10
2019-03-28T22:32:19.634Z,8.00
2019-03-28T22:34:49.515Z,8.00
2019-03-28T22:37:19.509Z,8.00
2019-03-28T22:39:49.696Z,7.90
2019-03-28T22:42:19.953Z,8.00
2019-03-28T22:44:51.065Z,7.90
2019-03-28T22:47:24.484Z,7.90
2019-03-28T22:49:54.418Z,7.90
2019-03-28T22:52:24.585Z,7.80
2019-03-28T22:54:55.481Z,7.80
2019-03-28T22:57:30.738Z,7.80
2019-03-28T23:00:22.453Z,7.80
2019-03-28T23:02:55.132Z,7.80
2019-03-28T23:05:27.356Z,7.70
2019-03-28T23:07:57.630Z,7.70
2019-03-28T23:10:27.904Z,7.70
2019-03-28T23:13:00.851Z,7.70
2019-03-28T23:15:31.433Z,7.60
2019-03-28T23:18:01.417Z,7.60
2019-03-28T23:20:33.721Z,7.60
2019-03-28T23:23:03.016Z,7.60
2019-03-28T23:25:32.915Z,7.60
2019-03-28T23:28:03.142Z,7.60
2019-03-28T23:30:33.080Z,7.50
2019-03-28T23:33:03.088Z,7.50
2019-03-28T23:35:33.388Z,7.50
2019-03-28T23:38:03.748Z,7.50
2019-03-28T23:40:35.018Z,7.40
2019-03-28T23:43:05.940Z,7.40
2019-03-28T23:45:36.326Z,7.40
2019-03-28T23:48:07.292Z,7.40
2019-03-28T23:50:37.367Z,7.30
2019-03-28T23:53:08.850Z,7.20
2019-03-28T23:55:40.206Z,7.30
2019-03-28T23:58:10.498Z,7.30
